createdAt,value
2023-04-09T00:02:11.679Z,100.00
2023-04-09T00:04:41.492Z,100.00
2023-04-09T00:07:13.067Z,100.00
2023-04-09T00:09:42.967Z,100.00
2023-04-09T00:12:13.136Z,100.00
2023-04-09T00:14:42.886Z,100.00
2023-04-09T00:17:13.026Z,100.00
2023-04-09T00:19:42.797Z,100.00
2023-04-09T00:22:14.367Z,100.00
2023-04-09T00:24:44.107Z,100.00
2023-04-09T00:27:14.325Z,100.00
2023-04-09T00:29:44.126Z,100.00
2023-04-09T00:32:14.239Z,100.00
2023-04-09T00:34:44.381Z,100.00
2023-04-09T00:37:16.082Z,100.00
2023-04-09T00:39:45.807Z,100.00
2023-04-09T00:42:16.886Z,100.00
2023-04-09T00:44:47.253Z,100.00
2023-04-09T00:47:17.436Z,100.00
2023-04-09T00:49:47.469Z,100.00
2023-04-09T00:52:19.008Z,100.00
2023-04-09T00:54:49.239Z,100.00
2023-04-09T00:57:20.293Z,100.00
2023-04-09T00:59:50.042Z,100.00
2023-04-09T01:02:20.173Z,100.00
2023-04-09T01:04:51.019Z,100.00
2023-04-09T01:07:28.058Z,100.00
2023-04-09T01:10:03.454Z,100.00
2023-04-09T01:12:35.276Z,100.00
2023-04-09T01:15:07.388Z,100.00
2023-04-09T01:17:40.804Z,100.00
2023-04-09T01:20:11.956Z,100.00
2023-04-09T01:22:51.541Z,100.00
2023-04-09T01:25:31.502Z,100.00
2023-04-09T01:28:20.681Z,100.00
2023-04-09T01:30:53.506Z,100.00
2023-04-09T01:33:24.221Z,100.00
2023-04-09T01:35:55.606Z,100.00
2023-04-09T01:38:26.862Z,100.00
2023-04-09T01:40:57.387Z,100.00
2023-04-09T01:43:29.521Z,100.00
2023-04-09T01:46:00.294Z,100.00
2023-04-09T01:48:30.884Z,100.00
2023-04-09T01:51:00.888Z,100.00
2023-04-09T01:53:31.534Z,100.00
2023-04-09T01:56:01.707Z,100.00
2023-04-09T01:58:34.603Z,100.00
2023-04-09T02:01:08.476Z,100.00
2023-04-09T02:03:41.235Z,100.00
2023-04-09T02:06:15.895Z,100.00
2023-04-09T02:08:47.084Z,100.00
2023-04-09T02:11:17.950Z,100.00
2023-04-09T02:13:52.242Z,100.00
2023-04-09T02:16:22.284Z,100.00
2023-04-09T02:18:54.941Z,100.00
2023-04-09T02:21:24.666Z,100.00
2023-04-09T02:23:54.785Z,100.00
2023-04-09T02:26:24.559Z,100.00
2023-04-09T02:28:56.125Z,100.00
2023-04-09T02:31:26.127Z,100.00
2023-04-09T02:33:56.306Z,100.00
2023-04-09T02:36:26.331Z,100.00
2023-04-09T02:38:56.510Z,100.00
2023-04-09T02:41:26.413Z,100.00
2023-04-09T02:43:58.160Z,100.00
2023-04-09T02:46:28.277Z,100.00
2023-04-09T02:48:58.408Z,100.00
2023-04-09T02:51:29.156Z,100.00
2023-04-09T02:53:59.395Z,100.00
2023-04-09T02:56:29.170Z,100.00
2023-04-09T02:59:00.762Z,100.00
2023-04-09T03:01:30.674Z,100.00
2023-04-09T03:04:00.972Z,100.00
2023-04-09T03:06:32.075Z,100.00
2023-04-09T03:09:02.344Z,100.00
2023-04-09T03:11:32.078Z,100.00
2023-04-09T03:14:03.934Z,100.00
2023-04-09T03:16:33.750Z,100.00
2023-04-09T03:19:03.939Z,100.00
2023-04-09T03:21:33.773Z,100.00
2023-04-09T03:24:04.201Z,100.00
2023-04-09T03:26:36.704Z,100.00
2023-04-09T03:29:10.618Z,100.00
2023-04-09T03:31:40.492Z,100.00
2023-04-09T03:34:11.223Z,100.00
2023-04-09T03:36:41.031Z,100.00
2023-04-09T03:39:16.602Z,100.00
2023-04-09T03:41:47.221Z,100.00
2023-04-09T03:44:20.959Z,100.00
2023-04-09T03:47:17.121Z,100.00
2023-04-09T03:49:47.492Z,100.00
2023-04-09T03:52:25.561Z,100.00
2023-04-09T03:55:05.662Z,100.00
2023-04-09T03:57:35.567Z,100.00
2023-04-09T04:00:09.605Z,100.00
2023-04-09T04:03:06.956Z,100.00
2023-04-09T04:05:55.405Z,100.00
2023-04-09T04:08:25.854Z,100.00
2023-04-09T04:10:56.378Z,100.00
2023-04-09T04:13:26.091Z,100.00
2023-04-09T04:16:01.638Z,100.00
2023-04-09T04:18:31.909Z,100.00
2023-04-09T04:21:01.976Z,100.00
2023-04-09T04:23:32.332Z,100.00
2023-04-09T04:26:15.864Z,100.00
2023-04-09T04:28:45.616Z,100.00
2023-04-09T04:31:26.486Z,100.00
2023-04-09T04:34:00.051Z,100.00
2023-04-09T04:36:30.575Z,100.00
2023-04-09T04:39:01.475Z,100.00
2023-04-09T04:41:45.284Z,100.00
2023-04-09T04:44:20.202Z,100.00
2023-04-09T04:46:55.327Z,100.00
2023-04-09T04:49:25.063Z,100.00
2023-04-09T04:51:55.477Z,100.00
2023-04-09T04:54:25.144Z,100.00
2023-04-09T04:56:59.058Z,100.00
2023-04-09T04:59:43.244Z,100.00
2023-04-09T05:02:17.493Z,100.00
2023-04-09T05:05:07.067Z,100.00
2023-04-09T05:07:42.704Z,100.00
2023-04-09T05:10:12.781Z,100.00
2023-04-09T05:12:45.739Z,100.00
2023-04-09T05:15:23.140Z,100.00
2023-04-09T05:17:55.367Z,100.00
2023-04-09T05:20:25.481Z,100.00
2023-04-09T05:23:05.765Z,100.00
2023-04-09T05:25:42.038Z,100.00
2023-04-09T05:28:19.478Z,100.00
2023-04-09T05:30:53.134Z,100.00
2023-04-09T05:33:24.870Z,100.00
2023-04-09T05:35:55.122Z,100.00
2023-04-09T05:38:25.364Z,100.00
2023-04-09T05:40:59.506Z,100.00
2023-04-09T05:43:29.859Z,100.00
2023-04-09T05:45:59.976Z,100.00
2023-04-09T05:48:31.930Z,100.00
2023-04-09T05:51:03.581Z,100.00
2023-04-09T05:53:34.341Z,100.00
2023-04-09T05:56:04.245Z,100.00
2023-04-09T05:58:49.298Z,100.00
2023-04-09T06:01:20.308Z,100.00
2023-04-09T06:03:55.338Z,100.00
2023-04-09T06:06:27.391Z,100.00
2023-04-09T06:08:57.574Z,100.00
2023-04-09T06:11:27.495Z,100.00
2023-04-09T06:13:57.710Z,100.00
2023-04-09T06:16:27.482Z,100.00
2023-04-09T06:18:59.190Z,100.00
2023-04-09T06:21:28.952Z,100.00
2023-04-09T06:23:58.975Z,100.00
2023-04-09T06:26:28.982Z,100.00
2023-04-09T06:28:59.440Z,100.00
2023-04-09T06:31:29.196Z,100.00
2023-04-09T06:34:00.697Z,100.00
2023-04-09T06:36:30.766Z,100.00
2023-04-09T06:39:01.219Z,100.00
2023-04-09T06:41:31.306Z,100.00
2023-04-09T06:44:01.928Z,100.00
2023-04-09T06:46:31.965Z,100.00
2023-04-09T06:49:03.680Z,100.00
2023-04-09T06:51:33.419Z,100.00
2023-04-09T06:54:03.448Z,100.00
2023-04-09T06:56:33.251Z,100.00
2023-04-09T06:59:03.474Z,100.00
2023-04-09T07:01:33.439Z,100.00
2023-04-09T07:04:05.397Z,100.00
2023-04-09T07:06:35.617Z,100.00
2023-04-09T07:09:05.693Z,100.00
2023-04-09T07:11:35.460Z,98.72
2023-04-09T07:14:05.802Z,94.48
2023-04-09T07:16:35.642Z,92.54
2023-04-09T07:19:07.779Z,90.32
2023-04-09T07:21:37.482Z,89.17
2023-04-09T07:24:07.942Z,88.77
2023-04-09T07:26:37.784Z,88.32
2023-04-09T07:29:08.177Z,88.36
2023-04-09T07:31:37.985Z,86.66
2023-04-09T07:34:09.938Z,84.17
2023-04-09T07:36:39.654Z,83.97
2023-04-09T07:39:09.807Z,85.02
2023-04-09T07:41:39.581Z,85.76
2023-04-09T07:44:09.880Z,83.41
2023-04-09T07:46:40.043Z,83.06
2023-04-09T07:49:11.986Z,82.32
2023-04-09T07:51:41.726Z,80.81
2023-04-09T07:54:12.213Z,80.56
2023-04-09T07:56:42.051Z,79.55
2023-04-09T07:59:12.570Z,77.74
2023-04-09T08:01:42.717Z,78.02
2023-04-09T08:04:14.717Z,75.09
2023-04-09T08:06:48.210Z,70.71
2023-04-09T08:09:18.837Z,69.10
2023-04-09T08:11:49.321Z,70.30
2023-04-09T08:14:20.801Z,68.12
2023-04-09T08:16:51.649Z,67.24
2023-04-09T08:19:23.456Z,67.12
2023-04-09T08:21:53.159Z,63.35
2023-04-09T08:24:23.386Z,64.42
2023-04-09T08:26:53.183Z,63.19
2023-04-09T08:29:23.360Z,63.76
2023-04-09T08:31:53.181Z,63.65
2023-04-09T08:34:25.015Z,64.65
2023-04-09T08:36:55.101Z,62.85
2023-04-09T08:39:25.662Z,64.25
2023-04-09T08:41:59.657Z,66.26
2023-04-09T08:44:30.160Z,65.93
2023-04-09T08:47:01.567Z,64.70
2023-04-09T08:49:34.652Z,65.27
2023-04-09T08:52:05.627Z,65.20
2023-04-09T08:54:35.965Z,65.05
2023-04-09T08:57:08.677Z,66.36
2023-04-09T08:59:38.991Z,64.10
2023-04-09T09:02:09.627Z,63.14
2023-04-09T09:04:48.432Z,62.34
2023-04-09T09:07:22.775Z,61.51
2023-04-09T09:09:58.795Z,59.78
2023-04-09T09:12:38.591Z,59.05
2023-04-09T09:15:27.403Z,62.76
2023-04-09T09:17:58.948Z,62.44
2023-04-09T09:20:30.758Z,61.62
2023-04-09T09:23:00.807Z,62.29
2023-04-09T09:25:31.027Z,64.14
2023-04-09T09:28:09.847Z,64.11
2023-04-09T09:30:41.164Z,66.26
2023-04-09T09:33:11.757Z,65.39
2023-04-09T09:35:50.783Z,66.31
2023-04-09T09:38:20.970Z,67.44
2023-04-09T09:40:52.794Z,68.34
2023-04-09T09:43:22.996Z,67.72
2023-04-09T09:45:54.753Z,70.19
2023-04-09T09:48:27.059Z,70.62
2023-04-09T09:51:00.204Z,70.44
2023-04-09T09:53:31.899Z,71.75
2023-04-09T09:56:01.991Z,72.31
2023-04-09T09:58:34.390Z,72.16
2023-04-09T10:01:09.488Z,67.91
2023-04-09T10:03:40.521Z,65.88
2023-04-09T10:06:12.981Z,65.99
2023-04-09T10:08:44.524Z,66.96
2023-04-09T10:11:14.851Z,67.64
2023-04-09T10:13:48.411Z,65.31
2023-04-09T10:16:19.173Z,64.62
2023-04-09T10:18:49.832Z,65.86
2023-04-09T10:21:27.812Z,65.82
2023-04-09T10:23:58.092Z,67.45
2023-04-09T10:26:31.206Z,66.17
2023-04-09T10:29:11.916Z,66.88
2023-04-09T10:31:55.326Z,65.90
2023-04-09T10:34:28.606Z,65.03
2023-04-09T10:37:00.874Z,65.03
2023-04-09T10:39:32.979Z,66.29
2023-04-09T10:42:04.009Z,63.81
2023-04-09T10:44:36.449Z,65.60
2023-04-09T10:47:07.910Z,64.81
2023-04-09T10:49:38.666Z,65.46
2023-04-09T10:52:12.212Z,63.64
2023-04-09T10:54:47.261Z,62.65
2023-04-09T10:57:18.746Z,62.71
2023-04-09T10:59:49.853Z,62.31
2023-04-09T11:02:34.183Z,63.15
2023-04-09T11:05:08.822Z,63.87
2023-04-09T11:07:41.945Z,65.07
2023-04-09T11:10:11.694Z,64.74
2023-04-09T11:12:43.345Z,63.20
2023-04-09T11:15:17.553Z,63.75
2023-04-09T11:17:48.300Z,62.59
2023-04-09T11:20:18.797Z,62.34
2023-04-09T11:22:50.939Z,63.48
2023-04-09T11:25:21.598Z,63.65
2023-04-09T11:27:52.651Z,64.16
2023-04-09T11:30:22.744Z,62.79
2023-04-09T11:32:53.101Z,61.14
2023-04-09T11:35:24.042Z,61.19
2023-04-09T11:37:56.054Z,63.07
2023-04-09T11:40:36.034Z,61.24
2023-04-09T11:43:11.194Z,60.88
2023-04-09T11:45:40.994Z,61.15
2023-04-09T11:48:11.984Z,60.26
2023-04-09T11:50:43.477Z,60.22
2023-04-09T11:53:22.206Z,59.71
2023-04-09T11:55:52.895Z,59.19
2023-04-09T11:58:24.525Z,60.21
2023-04-09T12:00:55.607Z,61.11
2023-04-09T12:03:33.704Z,60.31
2023-04-09T12:06:04.540Z,61.87
2023-04-09T12:08:37.636Z,62.61
2023-04-09T12:11:11.544Z,62.41
2023-04-09T12:13:43.650Z,60.76
2023-04-09T12:16:13.604Z,60.64
2023-04-09T12:18:43.658Z,61.41
2023-04-09T12:21:13.340Z,60.88
2023-04-09T12:23:44.839Z,60.51
2023-04-09T12:26:15.038Z,61.64
2023-04-09T12:28:45.323Z,61.56
2023-04-09T12:31:15.084Z,61.21
2023-04-09T12:33:45.328Z,62.08
2023-04-09T12:36:15.219Z,60.77
2023-04-09T12:38:46.678Z,60.77
2023-04-09T12:41:16.590Z,59.50
2023-04-09T12:43:47.528Z,59.63
2023-04-09T12:46:18.165Z,55.44
2023-04-09T12:48:48.402Z,53.30
2023-04-09T12:51:18.406Z,52.71
2023-04-09T12:53:50.129Z,54.66
2023-04-09T12:56:20.195Z,56.67
2023-04-09T12:58:50.580Z,58.92
2023-04-09T13:01:20.740Z,58.30
2023-04-09T13:03:51.114Z,59.61
2023-04-09T13:06:22.440Z,59.75
2023-04-09T13:08:54.283Z,59.98
2023-04-09T13:11:24.010Z,58.42
2023-04-09T13:13:54.284Z,58.43
2023-04-09T13:16:24.423Z,53.71
2023-04-09T13:18:54.912Z,54.19
2023-04-09T13:21:24.874Z,52.20
2023-04-09T13:23:56.700Z,51.06
2023-04-09T13:26:27.085Z,50.74
2023-04-09T13:28:57.397Z,51.60
2023-04-09T13:31:27.649Z,53.52
2023-04-09T13:33:58.192Z,55.74
2023-04-09T13:36:27.967Z,57.00
2023-04-09T13:39:04.619Z,55.86
2023-04-09T13:41:34.662Z,56.96
2023-04-09T13:44:05.599Z,57.03
2023-04-09T13:46:35.343Z,57.27
2023-04-09T13:49:05.367Z,56.62
2023-04-09T13:51:35.557Z,54.66
2023-04-09T13:54:08.428Z,51.86
2023-04-09T13:56:38.228Z,50.35
2023-04-09T13:59:08.619Z,50.04
2023-04-09T14:01:38.480Z,48.97
2023-04-09T14:04:08.714Z,48.33
2023-04-09T14:06:38.547Z,49.46
2023-04-09T14:09:10.227Z,49.03
2023-04-09T14:11:39.993Z,49.08
2023-04-09T14:14:10.983Z,49.08
2023-04-09T14:16:41.020Z,53.61
2023-04-09T14:19:11.092Z,56.90
2023-04-09T14:21:41.416Z,58.07
2023-04-09T14:24:12.985Z,58.38
2023-04-09T14:26:42.796Z,58.53
2023-04-09T14:29:12.888Z,60.13
2023-04-09T14:31:43.165Z,60.31
2023-04-09T14:34:13.216Z,60.52
2023-04-09T14:36:42.877Z,61.56
2023-04-09T14:39:14.437Z,61.75
2023-04-09T14:41:44.106Z,62.62
2023-04-09T14:44:14.357Z,62.73
2023-04-09T14:46:44.659Z,64.21
2023-04-09T14:49:14.826Z,64.78
2023-04-09T14:51:44.584Z,64.12
2023-04-09T14:54:17.070Z,64.34
2023-04-09T14:56:46.800Z,64.14
2023-04-09T14:59:16.907Z,63.94
2023-04-09T15:01:46.701Z,64.16
2023-04-09T15:04:16.906Z,63.83
2023-04-09T15:06:47.197Z,63.47
2023-04-09T15:09:18.781Z,62.22
2023-04-09T15:11:48.607Z,62.16
2023-04-09T15:14:20.811Z,62.60
2023-04-09T15:16:51.003Z,61.65
2023-04-09T15:19:21.051Z,61.23
2023-04-09T15:21:50.871Z,61.61
2023-04-09T15:24:22.391Z,61.97
2023-04-09T15:26:52.117Z,62.17
2023-04-09T15:29:22.189Z,60.59
2023-04-09T15:31:53.943Z,61.22
2023-04-09T15:34:26.040Z,62.00
2023-04-09T15:36:55.710Z,60.95
2023-04-09T15:39:29.106Z,61.05
2023-04-09T15:41:58.892Z,61.53
2023-04-09T15:44:28.966Z,61.54
2023-04-09T15:46:58.907Z,61.22
2023-04-09T15:49:29.047Z,62.73
2023-04-09T15:51:58.737Z,61.88
2023-04-09T15:54:30.356Z,61.93
2023-04-09T15:57:00.060Z,61.85
2023-04-09T15:59:30.249Z,62.70
2023-04-09T16:02:00.196Z,62.48
2023-04-09T16:04:30.373Z,63.83
2023-04-09T16:07:00.118Z,63.72
2023-04-09T16:09:31.772Z,65.65
2023-04-09T16:12:01.772Z,65.75
2023-04-09T16:14:31.743Z,67.02
2023-04-09T16:17:01.553Z,66.98
2023-04-09T16:19:31.785Z,66.06
2023-04-09T16:22:02.132Z,65.28
2023-04-09T16:24:33.808Z,65.62
2023-04-09T16:27:03.617Z,66.64
2023-04-09T16:29:33.644Z,66.68
2023-04-09T16:32:04.101Z,67.33
2023-04-09T16:34:34.113Z,67.83
2023-04-09T16:37:03.882Z,67.85
2023-04-09T16:39:35.353Z,68.75
2023-04-09T16:42:05.377Z,68.14
2023-04-09T16:44:35.983Z,69.94
2023-04-09T16:47:06.741Z,70.99
2023-04-09T16:49:37.008Z,71.18
2023-04-09T16:52:06.809Z,72.25
2023-04-09T16:54:38.337Z,73.75
2023-04-09T16:57:07.969Z,73.67
2023-04-09T16:59:38.078Z,74.98
2023-04-09T17:02:08.279Z,76.71
2023-04-09T17:04:38.720Z,76.89
2023-04-09T17:07:08.640Z,78.20
2023-04-09T17:09:40.116Z,80.19
2023-04-09T17:12:10.078Z,80.14
2023-04-09T17:14:42.199Z,81.04
2023-04-09T17:17:12.171Z,82.20
2023-04-09T17:19:43.094Z,84.28
2023-04-09T17:22:14.185Z,84.83
2023-04-09T17:24:48.365Z,86.14
2023-04-09T17:27:19.813Z,86.26
2023-04-09T17:29:51.062Z,87.61
2023-04-09T17:32:20.915Z,89.04
2023-04-09T17:34:51.658Z,88.75
2023-04-09T17:37:21.566Z,89.70
2023-04-09T17:39:53.576Z,89.25
2023-04-09T17:42:23.768Z,90.42
2023-04-09T17:44:53.979Z,92.68
2023-04-09T17:47:23.631Z,92.96
2023-04-09T17:49:54.110Z,93.70
2023-04-09T17:52:23.955Z,94.70
2023-04-09T17:54:55.650Z,95.45
2023-04-09T17:57:25.298Z,96.83
2023-04-09T17:59:55.531Z,96.56
2023-04-09T18:02:25.601Z,97.36
2023-04-09T18:04:56.848Z,98.31
2023-04-09T18:07:30.549Z,98.51
2023-04-09T18:10:02.604Z,99.88
2023-04-09T18:12:32.607Z,100.00
2023-04-09T18:15:04.415Z,100.00
2023-04-09T18:17:34.351Z,100.00
2023-04-09T18:20:04.844Z,100.00
2023-04-09T18:22:35.475Z,100.00
2023-04-09T18:25:07.944Z,100.00
2023-04-09T18:27:38.021Z,100.00
2023-04-09T18:30:09.153Z,100.00
2023-04-09T18:32:39.037Z,100.00
2023-04-09T18:35:09.408Z,100.00
2023-04-09T18:37:39.494Z,100.00
2023-04-09T18:40:12.674Z,100.00
2023-04-09T18:42:42.391Z,100.00
2023-04-09T18:45:13.002Z,100.00
2023-04-09T18:47:43.053Z,100.00
2023-04-09T18:50:15.488Z,100.00
2023-04-09T18:52:45.252Z,100.00
2023-04-09T18:55:17.193Z,100.00
2023-04-09T18:57:47.539Z,100.00
2023-04-09T19:00:17.718Z,100.00
2023-04-09T19:02:48.105Z,100.00
2023-04-09T19:05:18.619Z,100.00
2023-04-09T19:07:48.957Z,100.00
2023-04-09T19:10:20.796Z,100.00
2023-04-09T19:12:54.067Z,100.00
2023-04-09T19:15:26.402Z,100.00
2023-04-09T19:17:56.544Z,100.00
2023-04-09T19:20:27.551Z,100.00
2023-04-09T19:22:57.752Z,100.00
2023-04-09T19:25:30.032Z,100.00
2023-04-09T19:28:00.067Z,100.00
2023-04-09T19:30:30.506Z,100.00
2023-04-09T19:33:00.508Z,100.00
2023-04-09T19:35:33.309Z,100.00
2023-04-09T19:38:04.780Z,100.00
2023-04-09T19:40:37.060Z,100.00
2023-04-09T19:43:06.831Z,100.00
2023-04-09T19:45:37.808Z,100.00
2023-04-09T19:48:07.814Z,100.00
2023-04-09T19:50:39.117Z,100.00
2023-04-09T19:53:09.042Z,100.00
2023-04-09T19:55:40.699Z,100.00
2023-04-09T19:58:10.553Z,100.00
2023-04-09T20:00:40.665Z,100.00
2023-04-09T20:03:10.804Z,100.00
2023-04-09T20:05:41.097Z,100.00
2023-04-09T20:08:14.363Z,100.00
2023-04-09T20:10:48.065Z,100.00
2023-04-09T20:13:18.134Z,100.00
2023-04-09T20:15:50.138Z,100.00
2023-04-09T20:18:20.023Z,100.00
2023-04-09T20:20:50.954Z,100.00
2023-04-09T20:23:20.658Z,100.00
2023-04-09T20:25:55.360Z,100.00
2023-04-09T20:28:25.129Z,100.00
2023-04-09T20:30:56.124Z,100.00
2023-04-09T20:33:25.785Z,100.00
2023-04-09T20:35:55.979Z,100.00
2023-04-09T20:38:25.774Z,100.00
2023-04-09T20:40:57.313Z,100.00
2023-04-09T20:43:27.087Z,100.00
2023-04-09T20:45:57.671Z,100.00
2023-04-09T20:48:27.436Z,100.00
2023-04-09T20:50:58.233Z,100.00
2023-04-09T20:53:27.934Z,100.00
2023-04-09T20:55:59.613Z,100.00
2023-04-09T20:58:29.447Z,100.00
2023-04-09T21:01:04.219Z,100.00
2023-04-09T21:03:34.948Z,100.00
2023-04-09T21:06:05.242Z,100.00
2023-04-09T21:08:35.064Z,100.00
2023-04-09T21:11:07.067Z,100.00
2023-04-09T21:13:51.150Z,100.00
2023-04-09T21:16:26.371Z,100.00
2023-04-09T21:18:56.393Z,100.00
2023-04-09T21:21:27.643Z,100.00
2023-04-09T21:23:57.368Z,100.00
2023-04-09T21:26:33.726Z,100.00
2023-04-09T21:29:14.897Z,100.00
2023-04-09T21:31:45.078Z,100.00
2023-04-09T21:34:14.780Z,100.00
2023-04-09T21:36:45.576Z,100.00
2023-04-09T21:39:15.372Z,100.00
2023-04-09T21:41:46.946Z,100.00
2023-04-09T21:44:17.084Z,100.00
2023-04-09T21:46:47.952Z,100.00
2023-04-09T21:49:17.637Z,100.00
2023-04-09T21:51:47.863Z,100.00
2023-04-09T21:54:17.479Z,100.00
2023-04-09T21:56:48.918Z,100.00
2023-04-09T21:59:18.688Z,100.00
2023-04-09T22:01:50.108Z,100.00
2023-04-09T22:04:20.013Z,100.00
2023-04-09T22:06:50.420Z,100.00
2023-04-09T22:09:20.067Z,100.00
2023-04-09T22:11:51.435Z,100.00
2023-04-09T22:14:21.595Z,100.00
2023-04-09T22:16:51.586Z,100.00
2023-04-09T22:19:21.332Z,100.00
2023-04-09T22:21:51.596Z,100.00
2023-04-09T22:24:27.121Z,100.00
2023-04-09T22:26:59.625Z,100.00
2023-04-09T22:29:29.774Z,100.00
2023-04-09T22:31:59.819Z,100.00
2023-04-09T22:34:29.481Z,100.00
2023-04-09T22:36:59.629Z,100.00
2023-04-09T22:39:29.520Z,100.00
2023-04-09T22:42:04.320Z,100.00
2023-04-09T22:44:33.996Z,100.00
2023-04-09T22:47:04.135Z,100.00
2023-04-09T22:49:34.152Z,100.00
2023-04-09T22:52:04.323Z,100.00
2023-04-09T22:54:33.956Z,100.00
2023-04-09T22:57:06.013Z,100.00
2023-04-09T23:02:08.950Z,100.00
2023-04-09T23:04:38.777Z,100.00
2023-04-09T23:07:09.771Z,100.00
2023-04-09T23:09:39.465Z,100.00
2023-04-09T23:12:10.880Z,100.00
2023-04-09T23:14:40.576Z,100.00
2023-04-09T23:17:10.785Z,100.00
2023-04-09T23:19:40.466Z,100.00
2023-04-09T23:22:10.595Z,100.00
2023-04-09T23:24:40.647Z,100.00
2023-04-09T23:27:12.152Z,100.00
2023-04-09T23:29:41.783Z,100.00
2023-04-09T23:32:11.946Z,100.00
2023-04-09T23:34:41.512Z,100.00
2023-04-09T23:37:11.869Z,100.00
2023-04-09T23:39:41.645Z,100.00
2023-04-09T23:42:13.228Z,100.00
2023-04-09T23:44:44.249Z,100.00
2023-04-09T23:47:14.649Z,100.00
2023-04-09T23:49:45.202Z,100.00
2023-04-09T23:52:15.272Z,100.00
2023-04-09T23:54:49.414Z,100.00
2023-04-09T23:57:21.335Z,100.00
2023-04-09T23:59:50.985Z,100.00
